sensor_id;sensor_type;location;lat;lon;timestamp;pressure;altitude;pressure_sealevel;temperature;humidity
6349;BME280;3207;42.648;23.406;2023-04-29T00:01:01;99795.75;;;14.91;nan
6349;BME280;3207;42.648;23.406;2023-04-29T00:03:28;99797.66;;;14.99;nan
6349;BME280;3207;42.648;23.406;2023-04-29T00:05:58;99789.03;;;15.07;nan
6349;BME280;3207;42.648;23.406;2023-04-29T00:08:25;99787.09;;;15.09;nan
6349;BME280;3207;42.648;23.406;2023-04-29T00:10:52;99793.19;;;15.09;nan
6349;BME280;3207;42.648;23.406;2023-04-29T00:13:18;99787.38;;;15.06;nan
6349;BME280;3207;42.648;23.406;2023-04-29T00:15:45;99798.22;;;15.02;nan
6349;BME280;3207;42.648;23.406;2023-04-29T00:18:12;99787.69;;;15.02;nan
6349;BME280;3207;42.648;23.406;2023-04-29T00:20:39;99799.50;;;15.16;nan
6349;BME280;3207;42.648;23.406;2023-04-29T00:23:09;99800.06;;;15.20;nan
6349;BME280;3207;42.648;23.406;2023-04-29T00:25:36;99796.88;;;15.16;nan
6349;BME280;3207;42.648;23.406;2023-04-29T00:28:03;99806.97;;;15.21;nan
6349;BME280;3207;42.648;23.406;2023-04-29T00:30:30;99800.28;;;15.26;nan
6349;BME280;3207;42.648;23.406;2023-04-29T00:32:57;99800.28;;;15.26;nan
6349;BME280;3207;42.648;23.406;2023-04-29T00:35:24;99800.16;;;15.28;nan
6349;BME280;3207;42.648;23.406;2023-04-29T00:37:51;99797.00;;;15.24;nan
6349;BME280;3207;42.648;23.406;2023-04-29T00:40:20;99803.53;;;15.20;nan
6349;BME280;3207;42.648;23.406;2023-04-29T00:42:46;99795.84;;;15.27;nan
6349;BME280;3207;42.648;23.406;2023-04-29T00:45:13;99782.59;;;15.19;nan
6349;BME280;3207;42.648;23.406;2023-04-29T00:47:40;99806.03;;;15.39;nan
6349;BME280;3207;42.648;23.406;2023-04-29T00:50:08;99804.66;;;15.45;nan
6349;BME280;3207;42.648;23.406;2023-04-29T00:52:36;99797.09;;;15.50;nan
6349;BME280;3207;42.648;23.406;2023-04-29T00:55:04;99790.16;;;15.59;nan
6349;BME280;3207;42.648;23.406;2023-04-29T00:57:33;99792.34;;;15.63;nan
6349;BME280;3207;42.648;23.406;2023-04-29T01:00:00;99783.97;;;15.68;nan
6349;BME280;3207;42.648;23.406;2023-04-29T01:02:28;99772.78;;;15.66;nan
6349;BME280;3207;42.648;23.406;2023-04-29T01:04:55;99773.75;;;15.65;nan
6349;BME280;3207;42.648;23.406;2023-04-29T01:07:27;99789.78;;;15.71;nan
6349;BME280;3207;42.648;23.406;2023-04-29T01:10:02;99766.00;;;15.63;nan
6349;BME280;3207;42.648;23.406;2023-04-29T01:12:40;99773.91;;;15.63;nan
6349;BME280;3207;42.648;23.406;2023-04-29T01:15:11;99772.53;;;15.59;nan
6349;BME280;3207;42.648;23.406;2023-04-29T01:17:58;99769.66;;;15.53;nan
6349;BME280;3207;42.648;23.406;2023-04-29T01:20:26;99768.75;;;15.44;nan
6349;BME280;3207;42.648;23.406;2023-04-29T01:22:54;99764.50;;;15.33;nan
6349;BME280;3207;42.648;23.406;2023-04-29T01:25:22;99762.84;;;15.32;nan
6349;BME280;3207;42.648;23.406;2023-04-29T01:27:54;99765.72;;;15.39;nan
6349;BME280;3207;42.648;23.406;2023-04-29T01:30:30;99760.22;;;15.50;nan
6349;BME280;3207;42.648;23.406;2023-04-29T01:33:02;99764.66;;;15.50;nan
6349;BME280;3207;42.648;23.406;2023-04-29T01:35:43;99756.47;;;15.53;nan
6349;BME280;3207;42.648;23.406;2023-04-29T01:38:20;99762.97;;;15.58;nan
6349;BME280;3207;42.648;23.406;2023-04-29T01:40:59;99747.34;;;15.47;nan
6349;BME280;3207;42.648;23.406;2023-04-29T01:43:31;99747.75;;;15.52;nan
6349;BME280;3207;42.648;23.406;2023-04-29T01:46:01;99740.81;;;15.51;nan
6349;BME280;3207;42.648;23.406;2023-04-29T01:48:28;99745.94;;;15.53;nan
6349;BME280;3207;42.648;23.406;2023-04-29T01:50:56;99740.56;;;15.54;nan
6349;BME280;3207;42.648;23.406;2023-04-29T01:53:23;99743.88;;;15.56;nan
6349;BME280;3207;42.648;23.406;2023-04-29T01:55:51;99738.28;;;15.59;nan
6349;BME280;3207;42.648;23.406;2023-04-29T01:58:23;99736.19;;;15.63;nan
6349;BME280;3207;42.648;23.406;2023-04-29T02:00:50;99743.78;;;15.66;nan
6349;BME280;3207;42.648;23.406;2023-04-29T02:03:17;99734.38;;;15.63;nan
6349;BME280;3207;42.648;23.406;2023-04-29T02:05:44;99733.56;;;15.63;nan
6349;BME280;3207;42.648;23.406;2023-04-29T02:08:10;99718.03;;;15.60;nan
6349;BME280;3207;42.648;23.406;2023-04-29T02:10:37;99725.91;;;15.42;nan
6349;BME280;3207;42.648;23.406;2023-04-29T02:13:05;99723.84;;;15.18;nan
6349;BME280;3207;42.648;23.406;2023-04-29T02:15:32;99731.53;;;15.29;nan
6349;BME280;3207;42.648;23.406;2023-04-29T02:17:59;99733.47;;;15.27;nan
6349;BME280;3207;42.648;23.406;2023-04-29T02:20:26;99736.84;;;15.20;nan
6349;BME280;3207;42.648;23.406;2023-04-29T02:22:53;99733.53;;;15.18;nan
6349;BME280;3207;42.648;23.406;2023-04-29T02:25:21;99736.50;;;15.15;nan
6349;BME280;3207;42.648;23.406;2023-04-29T02:27:47;99731.94;;;15.07;nan
6349;BME280;3207;42.648;23.406;2023-04-29T02:30:16;99733.59;;;15.08;nan
6349;BME280;3207;42.648;23.406;2023-04-29T02:32:42;99739.69;;;15.09;nan
6349;BME280;3207;42.648;23.406;2023-04-29T02:35:09;99735.53;;;15.06;nan
6349;BME280;3207;42.648;23.406;2023-04-29T02:37:37;99740.84;;;14.96;nan
6349;BME280;3207;42.648;23.406;2023-04-29T02:40:04;99743.72;;;14.76;nan
6349;BME280;3207;42.648;23.406;2023-04-29T02:42:31;99757.06;;;14.64;nan
6349;BME280;3207;42.648;23.406;2023-04-29T02:44:58;99758.09;;;14.25;nan
6349;BME280;3207;42.648;23.406;2023-04-29T02:47:26;99764.22;;;14.06;nan
6349;BME280;3207;42.648;23.406;2023-04-29T02:49:53;99760.03;;;14.13;nan
6349;BME280;3207;42.648;23.406;2023-04-29T02:52:20;99710.69;;;13.98;nan
6349;BME280;3207;42.648;23.406;2023-04-29T02:54:47;99711.53;;;13.98;nan
6349;BME280;3207;42.648;23.406;2023-04-29T02:57:14;99749.41;;;13.96;nan
6349;BME280;3207;42.648;23.406;2023-04-29T02:59:41;99746.25;;;13.82;nan
6349;BME280;3207;42.648;23.406;2023-04-29T03:02:08;99742.91;;;13.90;nan
6349;BME280;3207;42.648;23.406;2023-04-29T03:04:36;99725.34;;;13.90;nan
6349;BME280;3207;42.648;23.406;2023-04-29T03:07:04;99727.69;;;14.03;nan
6349;BME280;3207;42.648;23.406;2023-04-29T03:09:32;99720.88;;;14.10;nan
6349;BME280;3207;42.648;23.406;2023-04-29T03:11:59;99730.16;;;14.24;nan
6349;BME280;3207;42.648;23.406;2023-04-29T03:14:27;99737.75;;;14.27;nan
6349;BME280;3207;42.648;23.406;2023-04-29T03:16:54;99722.53;;;14.21;nan
6349;BME280;3207;42.648;23.406;2023-04-29T03:19:22;99724.19;;;14.22;nan
6349;BME280;3207;42.648;23.406;2023-04-29T03:21:50;99730.00;;;14.25;nan
6349;BME280;3207;42.648;23.406;2023-04-29T03:24:17;99730.69;;;14.27;nan
6349;BME280;3207;42.648;23.406;2023-04-29T03:26:44;99736.38;;;14.23;nan
6349;BME280;3207;42.648;23.406;2023-04-29T03:29:10;99726.41;;;14.26;nan
6349;BME280;3207;42.648;23.406;2023-04-29T03:31:37;99727.50;;;14.24;nan
6349;BME280;3207;42.648;23.406;2023-04-29T03:34:04;99731.84;;;14.06;nan
6349;BME280;3207;42.648;23.406;2023-04-29T03:36:31;99727.81;;;14.02;nan
6349;BME280;3207;42.648;23.406;2023-04-29T03:38:59;99727.00;;;14.01;nan
6349;BME280;3207;42.648;23.406;2023-04-29T03:41:26;99723.69;;;14.09;nan
6349;BME280;3207;42.648;23.406;2023-04-29T03:43:52;99723.13;;;13.96;nan
6349;BME280;3207;42.648;23.406;2023-04-29T03:46:25;99726.47;;;13.98;nan
6349;BME280;3207;42.648;23.406;2023-04-29T03:48:51;99729.78;;;13.90;nan
6349;BME280;3207;42.648;23.406;2023-04-29T03:51:20;99721.06;;;13.80;nan
6349;BME280;3207;42.648;23.406;2023-04-29T03:53:47;99726.75;;;13.75;nan
6349;BME280;3207;42.648;23.406;2023-04-29T03:56:15;99721.19;;;13.69;nan
6349;BME280;3207;42.648;23.406;2023-04-29T03:58:42;99727.28;;;13.79;nan
6349;BME280;3207;42.648;23.406;2023-04-29T04:01:09;99732.13;;;13.74;nan
6349;BME280;3207;42.648;23.406;2023-04-29T04:03:36;99737.25;;;13.75;nan
6349;BME280;3207;42.648;23.406;2023-04-29T04:06:03;99738.09;;;13.85;nan
6349;BME280;3207;42.648;23.406;2023-04-29T04:08:29;99737.78;;;13.88;nan
6349;BME280;3207;42.648;23.406;2023-04-29T04:10:56;99751.63;;;13.90;nan
6349;BME280;3207;42.648;23.406;2023-04-29T04:13:28;99752.72;;;13.88;nan
6349;BME280;3207;42.648;23.406;2023-04-29T04:15:55;99754.25;;;13.90;nan
6349;BME280;3207;42.648;23.406;2023-04-29T04:18:22;99755.22;;;13.89;nan
6349;BME280;3207;42.648;23.406;2023-04-29T04:20:49;99760.19;;;13.92;nan
6349;BME280;3207;42.648;23.406;2023-04-29T04:23:16;99756.88;;;13.90;nan
6349;BME280;3207;42.648;23.406;2023-04-29T04:25:46;99763.09;;;13.89;nan
6349;BME280;3207;42.648;23.406;2023-04-29T04:28:13;99762.69;;;13.84;nan
6349;BME280;3207;42.648;23.406;2023-04-29T04:30:41;99758.13;;;13.86;nan
6349;BME280;3207;42.648;23.406;2023-04-29T04:33:08;99759.38;;;13.92;nan
6349;BME280;3207;42.648;23.406;2023-04-29T04:35:35;99754.53;;;13.78;nan
6349;BME280;3207;42.648;23.406;2023-04-29T04:38:02;99753.16;;;13.74;nan
6349;BME280;3207;42.648;23.406;2023-04-29T04:40:29;99760.34;;;13.81;nan
6349;BME280;3207;42.648;23.406;2023-04-29T04:42:56;99758.53;;;14.01;nan
6349;BME280;3207;42.648;23.406;2023-04-29T04:45:23;99761.47;;;13.98;nan
6349;BME280;3207;42.648;23.406;2023-04-29T04:47:51;99763.78;;;13.91;nan
6349;BME280;3207;42.648;23.406;2023-04-29T04:50:19;99763.38;;;14.06;nan
6349;BME280;3207;42.648;23.406;2023-04-29T04:52:46;99759.06;;;14.24;nan
6349;BME280;3207;42.648;23.406;2023-04-29T04:55:13;99759.72;;;14.36;nan
6349;BME280;3207;42.648;23.406;2023-04-29T04:57:39;99760.16;;;14.50;nan
6349;BME280;3207;42.648;23.406;2023-04-29T05:00:07;99750.44;;;14.60;nan
6349;BME280;3207;42.648;23.406;2023-04-29T05:02:34;99749.25;;;14.73;nan
6349;BME280;3207;42.648;23.406;2023-04-29T05:05:03;99758.25;;;14.80;nan
6349;BME280;3207;42.648;23.406;2023-04-29T05:07:30;99753.31;;;14.94;nan
6349;BME280;3207;42.648;23.406;2023-04-29T05:09:57;99752.84;;;15.09;nan
6349;BME280;3207;42.648;23.406;2023-04-29T05:12:24;99748.06;;;15.22;nan
6349;BME280;3207;42.648;23.406;2023-04-29T05:14:55;99753.81;;;15.35;nan
6349;BME280;3207;42.648;23.406;2023-04-29T05:17:22;99758.06;;;15.46;nan
6349;BME280;3207;42.648;23.406;2023-04-29T05:19:49;99766.84;;;15.64;nan
6349;BME280;3207;42.648;23.406;2023-04-29T05:22:17;99776.53;;;15.81;nan
6349;BME280;3207;42.648;23.406;2023-04-29T05:24:44;99778.50;;;15.97;nan
6349;BME280;3207;42.648;23.406;2023-04-29T05:27:12;99772.03;;;16.09;nan
6349;BME280;3207;42.648;23.406;2023-04-29T05:29:39;99768.31;;;16.20;nan
6349;BME280;3207;42.648;23.406;2023-04-29T05:32:06;99774.00;;;16.33;nan
6349;BME280;3207;42.648;23.406;2023-04-29T05:34:33;99780.53;;;16.46;nan
6349;BME280;3207;42.648;23.406;2023-04-29T05:37:00;99766.75;;;16.53;nan
6349;BME280;3207;42.648;23.406;2023-04-29T05:39:28;99778.09;;;16.71;nan
6349;BME280;3207;42.648;23.406;2023-04-29T05:41:55;99783.88;;;16.74;nan
6349;BME280;3207;42.648;23.406;2023-04-29T05:44:23;99777.03;;;16.90;nan
6349;BME280;3207;42.648;23.406;2023-04-29T05:46:50;99782.72;;;17.03;nan
6349;BME280;3207;42.648;23.406;2023-04-29T05:49:21;99784.03;;;17.07;nan
6349;BME280;3207;42.648;23.406;2023-04-29T05:51:48;99781.44;;;17.15;nan
6349;BME280;3207;42.648;23.406;2023-04-29T05:54:14;99770.22;;;17.21;nan
6349;BME280;3207;42.648;23.406;2023-04-29T05:56:43;99788.78;;;17.37;nan
6349;BME280;3207;42.648;23.406;2023-04-29T05:59:10;99784.84;;;17.49;nan
6349;BME280;3207;42.648;23.406;2023-04-29T06:01:36;99795.63;;;17.56;nan
6349;BME280;3207;42.648;23.406;2023-04-29T06:04:04;99787.19;;;17.61;nan
6349;BME280;3207;42.648;23.406;2023-04-29T06:06:30;99798.47;;;17.71;nan
6349;BME280;3207;42.648;23.406;2023-04-29T06:08:59;99795.19;;;17.77;nan
6349;BME280;3207;42.648;23.406;2023-04-29T06:11:26;99799.28;;;17.71;nan
6349;BME280;3207;42.648;23.406;2023-04-29T06:13:54;99798.81;;;17.76;nan
6349;BME280;3207;42.648;23.406;2023-04-29T06:16:21;99806.13;;;17.90;nan
6349;BME280;3207;42.648;23.406;2023-04-29T06:18:48;99809.44;;;18.00;nan
6349;BME280;3207;42.648;23.406;2023-04-29T06:21:15;99806.47;;;18.11;nan
6349;BME280;3207;42.648;23.406;2023-04-29T06:23:42;99804.81;;;18.18;nan
6349;BME280;3207;42.648;23.406;2023-04-29T06:26:09;99807.47;;;18.26;nan
6349;BME280;3207;42.648;23.406;2023-04-29T06:28:36;99808.47;;;18.42;nan
6349;BME280;3207;42.648;23.406;2023-04-29T06:31:04;99805.44;;;18.45;nan
6349;BME280;3207;42.648;23.406;2023-04-29T06:33:31;99813.56;;;18.68;nan
6349;BME280;3207;42.648;23.406;2023-04-29T06:35:59;99787.88;;;18.76;nan
6349;BME280;3207;42.648;23.406;2023-04-29T06:38:26;99805.50;;;19.08;nan
6349;BME280;3207;42.648;23.406;2023-04-29T06:40:52;99789.06;;;19.21;nan
6349;BME280;3207;42.648;23.406;2023-04-29T06:43:20;99771.78;;;19.33;nan
6349;BME280;3207;42.648;23.406;2023-04-29T06:45:47;99813.06;;;19.66;nan
6349;BME280;3207;42.648;23.406;2023-04-29T06:48:15;99812.22;;;19.97;nan
6349;BME280;3207;42.648;23.406;2023-04-29T06:50:48;99809.41;;;20.13;nan
6349;BME280;3207;42.648;23.406;2023-04-29T06:53:15;99818.56;;;20.33;nan
6349;BME280;3207;42.648;23.406;2023-04-29T06:55:42;99823.16;;;20.62;nan
6349;BME280;3207;42.648;23.406;2023-04-29T06:58:09;99818.50;;;20.79;nan
6349;BME280;3207;42.648;23.406;2023-04-29T07:00:36;99812.91;;;21.03;nan
6349;BME280;3207;42.648;23.406;2023-04-29T07:03:03;99820.66;;;21.28;nan
6349;BME280;3207;42.648;23.406;2023-04-29T07:05:31;99815.56;;;21.47;nan
6349;BME280;3207;42.648;23.406;2023-04-29T07:07:58;99805.28;;;21.59;nan
6349;BME280;3207;42.648;23.406;2023-04-29T07:10:25;99800.16;;;21.79;nan
6349;BME280;3207;42.648;23.406;2023-04-29T07:12:52;99814.34;;;22.01;nan
6349;BME280;3207;42.648;23.406;2023-04-29T07:15:19;99793.88;;;22.01;nan
6349;BME280;3207;42.648;23.406;2023-04-29T07:17:46;99790.28;;;22.15;nan
6349;BME280;3207;42.648;23.406;2023-04-29T07:20:13;99791.53;;;22.41;nan
6349;BME280;3207;42.648;23.406;2023-04-29T07:22:41;99793.03;;;22.50;nan
6349;BME280;3207;42.648;23.406;2023-04-29T07:25:08;99797.16;;;22.52;nan
6349;BME280;3207;42.648;23.406;2023-04-29T07:27:35;99801.78;;;22.65;nan
6349;BME280;3207;42.648;23.406;2023-04-29T07:30:03;99804.75;;;22.77;nan
6349;BME280;3207;42.648;23.406;2023-04-29T07:32:30;99806.09;;;22.94;nan
6349;BME280;3207;42.648;23.406;2023-04-29T07:34:57;99809.69;;;23.14;nan
6349;BME280;3207;42.648;23.406;2023-04-29T07:37:24;99810.84;;;23.40;nan
6349;BME280;3207;42.648;23.406;2023-04-29T07:39:52;99805.59;;;23.66;nan
6349;BME280;3207;42.648;23.406;2023-04-29T07:42:19;99816.97;;;23.81;nan
6349;BME280;3207;42.648;23.406;2023-04-29T07:44:46;99818.44;;;24.17;nan
6349;BME280;3207;42.648;23.406;2023-04-29T07:47:13;99823.00;;;24.49;nan
6349;BME280;3207;42.648;23.406;2023-04-29T07:49:39;99828.34;;;24.75;nan
6349;BME280;3207;42.648;23.406;2023-04-29T07:52:10;99828.34;;;24.89;nan
6349;BME280;3207;42.648;23.406;2023-04-29T07:54:36;99828.50;;;25.20;nan
6349;BME280;3207;42.648;23.406;2023-04-29T07:57:05;99816.84;;;25.52;nan
6349;BME280;3207;42.648;23.406;2023-04-29T07:59:31;99818.97;;;25.82;nan
6349;BME280;3207;42.648;23.406;2023-04-29T08:01:58;99813.28;;;26.03;nan
6349;BME280;3207;42.648;23.406;2023-04-29T08:04:25;99825.88;;;26.28;nan
6349;BME280;3207;42.648;23.406;2023-04-29T08:06:52;99832.19;;;26.40;nan
6349;BME280;3207;42.648;23.406;2023-04-29T08:09:19;99824.75;;;26.42;nan
6349;BME280;3207;42.648;23.406;2023-04-29T08:11:46;99815.53;;;26.38;nan
6349;BME280;3207;42.648;23.406;2023-04-29T08:14:14;99837.66;;;26.51;nan
6349;BME280;3207;42.648;23.406;2023-04-29T08:16:41;99829.69;;;26.70;nan
6349;BME280;3207;42.648;23.406;2023-04-29T08:19:07;99827.38;;;26.73;nan
6349;BME280;3207;42.648;23.406;2023-04-29T08:21:34;99825.91;;;26.52;nan
6349;BME280;3207;42.648;23.406;2023-04-29T08:24:01;99825.69;;;26.54;nan
6349;BME280;3207;42.648;23.406;2023-04-29T08:26:28;99849.31;;;26.64;nan
6349;BME280;3207;42.648;23.406;2023-04-29T08:28:55;99842.84;;;26.71;nan
6349;BME280;3207;42.648;23.406;2023-04-29T08:31:23;99852.44;;;26.85;nan
6349;BME280;3207;42.648;23.406;2023-04-29T08:33:50;99849.81;;;26.79;nan
6349;BME280;3207;42.648;23.406;2023-04-29T08:36:17;99857.09;;;26.72;nan
6349;BME280;3207;42.648;23.406;2023-04-29T08:38:44;99853.47;;;26.59;nan
6349;BME280;3207;42.648;23.406;2023-04-29T08:41:13;99849.72;;;26.67;nan
6349;BME280;3207;42.648;23.406;2023-04-29T08:43:41;99851.03;;;26.58;nan
6349;BME280;3207;42.648;23.406;2023-04-29T08:46:08;99858.47;;;26.56;nan
6349;BME280;3207;42.648;23.406;2023-04-29T08:48:37;99854.84;;;26.44;nan
6349;BME280;3207;42.648;23.406;2023-04-29T08:51:05;99857.75;;;26.42;nan
6349;BME280;3207;42.648;23.406;2023-04-29T08:53:32;99846.47;;;26.34;nan
6349;BME280;3207;42.648;23.406;2023-04-29T08:56:06;99860.16;;;26.50;nan
6349;BME280;3207;42.648;23.406;2023-04-29T08:58:35;99816.81;;;26.29;nan
6349;BME280;3207;42.648;23.406;2023-04-29T09:01:06;99854.84;;;26.44;nan
6349;BME280;3207;42.648;23.406;2023-04-29T09:03:39;99850.44;;;26.56;nan
6349;BME280;3207;42.648;23.406;2023-04-29T09:06:09;99850.72;;;26.48;nan
6349;BME280;3207;42.648;23.406;2023-04-29T09:08:37;99840.69;;;26.61;nan
6349;BME280;3207;42.648;23.406;2023-04-29T09:11:07;99835.28;;;26.68;nan
6349;BME280;3207;42.648;23.406;2023-04-29T09:13:34;99831.63;;;27.06;nan
6349;BME280;3207;42.648;23.406;2023-04-29T09:16:01;99837.75;;;27.31;nan
6349;BME280;3207;42.648;23.406;2023-04-29T09:18:46;99845.03;;;27.24;nan
6349;BME280;3207;42.648;23.406;2023-04-29T09:21:20;99844.72;;;27.14;nan
6349;BME280;3207;42.648;23.406;2023-04-29T09:23:49;99839.22;;;27.27;nan
6349;BME280;3207;42.648;23.406;2023-04-29T09:26:16;99836.41;;;27.22;nan
6349;BME280;3207;42.648;23.406;2023-04-29T09:28:43;99812.16;;;27.10;nan
6349;BME280;3207;42.648;23.406;2023-04-29T09:31:12;99812.16;;;27.10;nan
6349;BME280;3207;42.648;23.406;2023-04-29T09:33:57;99820.28;;;27.04;nan
6349;BME280;3207;42.648;23.406;2023-04-29T09:36:39;99826.50;;;27.22;nan
6349;BME280;3207;42.648;23.406;2023-04-29T09:39:07;99829.88;;;27.48;nan
6349;BME280;3207;42.648;23.406;2023-04-29T09:41:57;99832.81;;;27.64;nan
6349;BME280;3207;42.648;23.406;2023-04-29T09:44:29;99826.19;;;27.30;nan
6349;BME280;3207;42.648;23.406;2023-04-29T09:46:58;99820.56;;;26.95;nan
6349;BME280;3207;42.648;23.406;2023-04-29T09:49:33;99789.16;;;26.78;nan
6349;BME280;3207;42.648;23.406;2023-04-29T09:52:03;99828.88;;;26.87;nan
6349;BME280;3207;42.648;23.406;2023-04-29T09:54:31;99824.47;;;26.75;nan
6349;BME280;3207;42.648;23.406;2023-04-29T09:57:00;99824.91;;;26.72;nan
6349;BME280;3207;42.648;23.406;2023-04-29T09:59:35;99823.94;;;26.66;nan
6349;BME280;3207;42.648;23.406;2023-04-29T10:02:12;99826.50;;;26.79;nan
6349;BME280;3207;42.648;23.406;2023-04-29T10:04:44;99826.03;;;26.82;nan
6349;BME280;3207;42.648;23.406;2023-04-29T10:07:13;99784.44;;;26.55;nan
6349;BME280;3207;42.648;23.406;2023-04-29T10:09:41;99826.84;;;26.83;nan
6349;BME280;3207;42.648;23.406;2023-04-29T10:12:09;99822.97;;;27.04;nan
6349;BME280;3207;42.648;23.406;2023-04-29T10:14:44;99820.50;;;27.39;nan
6349;BME280;3207;42.648;23.406;2023-04-29T10:17:17;99816.69;;;27.46;nan
6349;BME280;3207;42.648;23.406;2023-04-29T10:19:51;99818.25;;;27.54;nan
6349;BME280;3207;42.648;23.406;2023-04-29T10:22:27;99802.66;;;27.44;nan
6349;BME280;3207;42.648;23.406;2023-04-29T10:24:56;99806.16;;;27.63;nan
6349;BME280;3207;42.648;23.406;2023-04-29T10:27:23;99805.66;;;27.54;nan
6349;BME280;3207;42.648;23.406;2023-04-29T10:29:52;99806.63;;;27.60;nan
6349;BME280;3207;42.648;23.406;2023-04-29T10:32:20;99793.47;;;27.70;nan
6349;BME280;3207;42.648;23.406;2023-04-29T10:34:50;99800.38;;;27.29;nan
6349;BME280;3207;42.648;23.406;2023-04-29T10:37:18;99794.59;;;27.44;nan
6349;BME280;3207;42.648;23.406;2023-04-29T10:39:49;99797.19;;;27.21;nan
6349;BME280;3207;42.648;23.406;2023-04-29T10:42:25;99781.34;;;27.31;nan
6349;BME280;3207;42.648;23.406;2023-04-29T10:45:16;99779.81;;;27.53;nan
6349;BME280;3207;42.648;23.406;2023-04-29T10:48:15;99773.94;;;27.63;nan
6349;BME280;3207;42.648;23.406;2023-04-29T10:51:08;99775.81;;;27.62;nan
6349;BME280;3207;42.648;23.406;2023-04-29T10:53:35;99772.34;;;27.74;nan
6349;BME280;3207;42.648;23.406;2023-04-29T10:56:05;99758.81;;;27.92;nan
6349;BME280;3207;42.648;23.406;2023-04-29T10:58:37;99760.59;;;27.98;nan
6349;BME280;3207;42.648;23.406;2023-04-29T11:01:05;99766.22;;;28.08;nan
6349;BME280;3207;42.648;23.406;2023-04-29T11:03:48;99754.66;;;27.96;nan
6349;BME280;3207;42.648;23.406;2023-04-29T11:06:22;99759.88;;;27.91;nan
6349;BME280;3207;42.648;23.406;2023-04-29T11:08:59;99756.34;;;27.79;nan
6349;BME280;3207;42.648;23.406;2023-04-29T11:11:39;99745.91;;;27.71;nan
6349;BME280;3207;42.648;23.406;2023-04-29T11:14:07;99750.06;;;27.85;nan
6349;BME280;3207;42.648;23.406;2023-04-29T11:16:34;99746.84;;;27.76;nan
6349;BME280;3207;42.648;23.406;2023-04-29T11:19:06;99751.69;;;27.56;nan
6349;BME280;3207;42.648;23.406;2023-04-29T11:21:35;99746.41;;;27.49;nan
6349;BME280;3207;42.648;23.406;2023-04-29T11:24:03;99740.00;;;27.50;nan
6349;BME280;3207;42.648;23.406;2023-04-29T11:26:31;99744.69;;;27.55;nan
6349;BME280;3207;42.648;23.406;2023-04-29T11:28:57;99742.00;;;27.55;nan
6349;BME280;3207;42.648;23.406;2023-04-29T11:31:26;99736.09;;;27.64;nan
6349;BME280;3207;42.648;23.406;2023-04-29T11:33:54;99732.50;;;27.71;nan
6349;BME280;3207;42.648;23.406;2023-04-29T11:36:21;99723.72;;;27.63;nan
6349;BME280;3207;42.648;23.406;2023-04-29T11:38:49;99725.59;;;27.63;nan
6349;BME280;3207;42.648;23.406;2023-04-29T11:41:16;99727.94;;;27.71;nan
6349;BME280;3207;42.648;23.406;2023-04-29T11:43:45;99727.16;;;27.94;nan
6349;BME280;3207;42.648;23.406;2023-04-29T11:46:13;99719.13;;;28.05;nan
6349;BME280;3207;42.648;23.406;2023-04-29T11:48:45;99735.31;;;27.76;nan
6349;BME280;3207;42.648;23.406;2023-04-29T11:51:13;99725.97;;;27.78;nan
6349;BME280;3207;42.648;23.406;2023-04-29T11:53:40;99727.16;;;27.94;nan
6349;BME280;3207;42.648;23.406;2023-04-29T11:56:09;99720.00;;;27.64;nan
6349;BME280;3207;42.648;23.406;2023-04-29T11:58:37;99723.56;;;27.58;nan
6349;BME280;3207;42.648;23.406;2023-04-29T12:01:04;99729.69;;;27.47;nan
6349;BME280;3207;42.648;23.406;2023-04-29T12:03:32;99721.56;;;27.54;nan
6349;BME280;3207;42.648;23.406;2023-04-29T12:06:00;99717.41;;;27.69;nan
6349;BME280;3207;42.648;23.406;2023-04-29T12:08:28;99717.81;;;27.85;nan
6349;BME280;3207;42.648;23.406;2023-04-29T12:10:58;99711.03;;;27.94;nan
6349;BME280;3207;42.648;23.406;2023-04-29T12:13:28;99711.94;;;27.64;nan
6349;BME280;3207;42.648;23.406;2023-04-29T12:15:56;99710.84;;;27.65;nan
6349;BME280;3207;42.648;23.406;2023-04-29T12:18:24;99703.66;;;27.48;nan
6349;BME280;3207;42.648;23.406;2023-04-29T12:20:52;99709.75;;;27.25;nan
6349;BME280;3207;42.648;23.406;2023-04-29T12:23:21;99705.59;;;27.29;nan
6349;BME280;3207;42.648;23.406;2023-04-29T12:25:52;99703.06;;;27.64;nan
6349;BME280;3207;42.648;23.406;2023-04-29T12:28:19;99698.06;;;27.49;nan
6349;BME280;3207;42.648;23.406;2023-04-29T12:30:49;99696.38;;;27.37;nan
6349;BME280;3207;42.648;23.406;2023-04-29T12:33:18;99696.25;;;27.31;nan
6349;BME280;3207;42.648;23.406;2023-04-29T12:35:47;99686.63;;;27.42;nan
6349;BME280;3207;42.648;23.406;2023-04-29T12:38:21;99700.00;;;27.30;nan
6349;BME280;3207;42.648;23.406;2023-04-29T12:40:48;99697.84;;;27.51;nan
6349;BME280;3207;42.648;23.406;2023-04-29T12:43:15;99695.47;;;27.43;nan
6349;BME280;3207;42.648;23.406;2023-04-29T12:45:43;99691.66;;;27.50;nan
6349;BME280;3207;42.648;23.406;2023-04-29T12:48:11;99680.81;;;27.57;nan
6349;BME280;3207;42.648;23.406;2023-04-29T12:50:39;99675.47;;;27.68;nan
6349;BME280;3207;42.648;23.406;2023-04-29T12:53:08;99681.44;;;27.71;nan
6349;BME280;3207;42.648;23.406;2023-04-29T12:55:36;99676.09;;;27.82;nan
6349;BME280;3207;42.648;23.406;2023-04-29T12:58:04;99671.66;;;27.88;nan
6349;BME280;3207;42.648;23.406;2023-04-29T13:00:31;99667.81;;;27.84;nan
6349;BME280;3207;42.648;23.406;2023-04-29T13:02:59;99671.06;;;27.97;nan
6349;BME280;3207;42.648;23.406;2023-04-29T13:05:27;99669.53;;;27.78;nan
6349;BME280;3207;42.648;23.406;2023-04-29T13:07:54;99669.06;;;27.69;nan
6349;BME280;3207;42.648;23.406;2023-04-29T13:10:21;99665.56;;;27.69;nan
6349;BME280;3207;42.648;23.406;2023-04-29T13:12:48;99659.13;;;27.58;nan
6349;BME280;3207;42.648;23.406;2023-04-29T13:15:15;99661.44;;;27.55;nan
6349;BME280;3207;42.648;23.406;2023-04-29T13:17:41;99657.22;;;27.17;nan
6349;BME280;3207;42.648;23.406;2023-04-29T13:20:09;99662.28;;;27.37;nan
6349;BME280;3207;42.648;23.406;2023-04-29T13:22:37;99657.84;;;27.31;nan
6349;BME280;3207;42.648;23.406;2023-04-29T13:25:04;99654.16;;;27.44;nan
6349;BME280;3207;42.648;23.406;2023-04-29T13:27:31;99647.41;;;27.23;nan
6349;BME280;3207;42.648;23.406;2023-04-29T13:29:58;99644.09;;;27.39;nan
6349;BME280;3207;42.648;23.406;2023-04-29T13:32:25;99651.38;;;27.50;nan
6349;BME280;3207;42.648;23.406;2023-04-29T13:34:52;99644.09;;;27.39;nan
6349;BME280;3207;42.648;23.406;2023-04-29T13:37:19;99631.84;;;27.43;nan
6349;BME280;3207;42.648;23.406;2023-04-29T13:39:47;99639.13;;;27.54;nan